Daniel Field Augusta US
ICAO: KDNL
IATA: DNL
Category: Medium
Scheduled Services: No

Elevation: 423 ft
TransAlt. 18000 ft.

Airport Communications:
AUGUSTA APP/DEP:126.8
ASOS:135.275
CLNC DEL:128.1
MACON RDO:122.3
CTAF/UNICOM:123.05

KDNL Zoom In..

If you have problems with the map follow the link
https://www.worldairports.se/pages/airport.php?
ICAO=KDNL

Runways:

(A) RW 05 length 4002 ft width 100 ft
---- / hdg 50

(B) RW 11 length 3733 ft width 100 ft
---- / hdg 108

(C) RW 23 length 4002 ft width 100 ft
---- / hdg 230

(D) RW 29 length 3733 ft width 100 ft
---- / hdg 288

Location; KDNL
Day. 07 / Time. 07.53 Zulu
* Altimeter: 30.19
* Temperature: 11° c. 51.8°f.
* Wind from: 360° Speed 04 kn.
Dewpoint: 04° c.
Visibility: 10 Statute Miles.
Clouds: Scattered 7500 ft.
Clouds: Overcast 9000 ft.

KDNL 070753Z AUTO 36004KT 10SM SCT075 OVC090 11/04 A3019 RMK AO2 SLP221 T01110044 TSNO


Wind From 360°
Speed 04 kn.

 
 
jpsmedia worldairports.se 2019   terms of use